createdAt,value
2019-03-08T00:04:43.542Z,95743.27
2019-03-08T00:07:11.940Z,95747.22
2019-03-08T00:09:40.338Z,95743.77
2019-03-08T00:12:29.910Z,95748.85
2019-03-08T00:14:58.302Z,95742.91
2019-03-08T00:17:26.693Z,95746.06
2019-03-08T00:22:28.899Z,95752.81
2019-03-08T00:24:57.305Z,95747.85
2019-03-08T00:29:59.348Z,95765.01
2019-03-08T00:32:27.761Z,95764.36
2019-03-08T00:34:56.226Z,95764.52
2019-03-08T00:37:24.627Z,95765.66
2019-03-08T00:42:26.827Z,95763.04
2019-03-08T00:44:55.226Z,95760.73
2019-03-08T00:49:57.485Z,95761.39
2019-03-08T00:54:59.863Z,95761.75
2019-03-08T01:00:21.385Z,95765.52
2019-03-08T01:03:29.735Z,95754.67
2019-03-08T01:05:58.129Z,95756.49
2019-03-08T01:08:45.840Z,95760.44
2019-03-08T01:11:14.226Z,95752.19
2019-03-08T01:13:42.625Z,95759.42
2019-03-08T01:16:12.771Z,95752.84
2019-03-08T01:18:41.166Z,95745.28
2019-03-08T01:21:09.634Z,95743.13
2019-03-08T01:26:11.507Z,95744.14
2019-03-08T01:28:39.903Z,95745.46
2019-03-08T01:31:48.260Z,95745.77
2019-03-08T01:34:35.962Z,95742.63
2019-03-08T01:37:23.703Z,95743.64
2019-03-08T01:39:52.097Z,95744.45
2019-03-08T01:42:20.497Z,95747.75
2019-03-08T01:44:48.935Z,95747.92
2019-03-08T01:47:17.327Z,95742.00
2019-03-08T01:49:45.726Z,95742.16
2019-03-08T01:54:47.893Z,95738.57
2019-03-08T01:59:52.000Z,95722.27
2019-03-08T02:02:20.394Z,95719.14
2019-03-08T02:07:41.646Z,95718.16
2019-03-08T02:10:50.305Z,95716.00
2019-03-08T02:13:20.423Z,95718.32
2019-03-08T02:15:48.829Z,95714.38
2019-03-08T02:18:17.285Z,95713.56
2019-03-08T02:20:45.695Z,95717.68
2019-03-08T02:23:14.079Z,95717.52
2019-03-08T02:28:16.783Z,95721.94
2019-03-08T02:30:45.222Z,95722.95
2019-03-08T02:33:13.615Z,95720.31
2019-03-08T02:35:42.071Z,95722.45
2019-03-08T02:40:44.637Z,95724.43
2019-03-08T02:46:06.819Z,95741.39
2019-03-08T02:48:35.235Z,95732.33
2019-03-08T02:51:03.641Z,95734.31
2019-03-08T02:53:32.028Z,95735.63
2019-03-08T02:56:00.452Z,95747.64
2019-03-08T02:58:28.847Z,95749.97
2019-03-08T03:00:57.239Z,95748.65
2019-03-08T03:03:25.700Z,95745.52
2019-03-08T03:05:54.091Z,95760.97
2019-03-08T03:08:22.499Z,95745.02
2019-03-08T03:13:24.827Z,95760.97
2019-03-08T03:18:27.119Z,95770.38
2019-03-08T03:23:29.554Z,95781.23
2019-03-08T03:25:57.986Z,95782.40
2019-03-08T03:28:45.627Z,95790.77
2019-03-08T03:31:14.099Z,95790.62
2019-03-08T03:33:42.489Z,95798.52
2019-03-08T03:36:10.883Z,95803.95
2019-03-08T03:38:39.325Z,95807.08
2019-03-08T03:41:07.701Z,95802.98
2019-03-08T03:43:36.093Z,95802.98
2019-03-08T03:48:38.896Z,95811.34
2019-03-08T03:51:07.326Z,95810.88
2019-03-08T03:53:35.719Z,95813.98
2019-03-08T03:56:25.236Z,95817.45
2019-03-08T03:58:53.634Z,95823.04
2019-03-08T04:04:30.446Z,95829.78
2019-03-08T04:06:58.843Z,95836.86
2019-03-08T04:09:27.239Z,95838.17
2019-03-08T04:14:29.722Z,95838.02
2019-03-08T04:19:32.363Z,95839.65
2019-03-08T04:24:35.181Z,95851.30
2019-03-08T04:29:37.664Z,95845.20
2019-03-08T04:32:06.055Z,95853.56
2019-03-08T04:34:34.489Z,95851.77
2019-03-08T04:37:02.883Z,95853.55
2019-03-08T04:39:33.003Z,95856.99
2019-03-08T04:44:35.785Z,95860.92
2019-03-08T04:47:23.514Z,95855.15
2019-03-08T04:49:51.907Z,95857.97
2019-03-08T04:52:39.453Z,95858.78
2019-03-08T04:55:47.769Z,95865.20
2019-03-08T05:00:50.182Z,95860.41
2019-03-08T05:03:18.609Z,95872.91
2019-03-08T05:05:48.720Z,95870.61
2019-03-08T05:08:17.116Z,95874.87
2019-03-08T05:10:45.569Z,95873.55
2019-03-08T05:13:33.285Z,95871.27
2019-03-08T05:16:01.722Z,95876.19
2019-03-08T05:18:30.119Z,95867.63
2019-03-08T05:20:58.521Z,95876.53
2019-03-08T05:26:01.055Z,95881.28
2019-03-08T05:28:29.487Z,95882.11
2019-03-08T05:30:59.606Z,95887.72
2019-03-08T05:33:28.000Z,95895.92
2019-03-08T05:35:56.419Z,95890.34
2019-03-08T05:38:24.805Z,95897.23
2019-03-08T05:40:53.217Z,95898.75
2019-03-08T05:43:21.641Z,95893.80
2019-03-08T05:45:51.757Z,95901.70
2019-03-08T05:48:20.146Z,95910.41
2019-03-08T05:50:48.564Z,95909.94
2019-03-08T05:53:16.954Z,95910.91
2019-03-08T05:55:45.418Z,95916.82
2019-03-08T06:00:48.214Z,95912.69
2019-03-08T06:03:16.646Z,95924.84
2019-03-08T06:05:45.042Z,95929.66
2019-03-08T06:08:13.479Z,95939.84
2019-03-08T06:10:41.895Z,95937.22
2019-03-08T06:13:10.286Z,95934.42
2019-03-08T06:15:40.471Z,95942.96
2019-03-08T06:18:08.890Z,95938.20
2019-03-08T06:20:37.295Z,95952.84
2019-03-08T06:23:05.677Z,95951.88
2019-03-08T06:28:08.500Z,95950.90
2019-03-08T06:30:38.640Z,95964.88
2019-03-08T06:33:07.040Z,95974.58
2019-03-08T06:35:35.490Z,95978.88
2019-03-08T06:43:33.166Z,95982.84
2019-03-08T06:46:20.854Z,95986.45
2019-03-08T06:48:49.258Z,95982.20
2019-03-08T06:51:17.672Z,95988.14
2019-03-08T06:54:05.362Z,95989.63
2019-03-08T06:56:52.996Z,96001.16
2019-03-08T06:59:40.541Z,96013.52
2019-03-08T07:02:22.035Z,96008.13
2019-03-08T07:04:50.455Z,96010.93
2019-03-08T07:07:18.848Z,96023.64
2019-03-08T07:09:47.242Z,96021.17
2019-03-08T07:14:50.041Z,96025.30
2019-03-08T07:22:47.310Z,96037.81
2019-03-08T07:30:59.237Z,96047.93
2019-03-08T07:33:53.202Z,96049.98
2019-03-08T07:36:36.101Z,96048.19
2019-03-08T07:39:44.434Z,96052.53
2019-03-08T07:42:32.002Z,96060.64
2019-03-08T07:48:08.694Z,96067.07
2019-03-08T07:59:03.328Z,96084.36
2019-03-08T08:02:11.655Z,96083.84
2019-03-08T08:04:59.189Z,96087.09
2019-03-08T08:07:46.717Z,96080.59
2019-03-08T08:13:09.848Z,96091.20
2019-03-08T08:15:57.399Z,96094.22
2019-03-08T08:19:05.808Z,96096.75
2019-03-08T08:21:55.050Z,96098.96
2019-03-08T08:24:42.607Z,96107.41
2019-03-08T08:27:30.246Z,96119.05
2019-03-08T08:30:17.786Z,96116.12
2019-03-08T08:33:05.311Z,96118.31
2019-03-08T08:38:28.063Z,96141.52
2019-03-08T08:41:15.762Z,96123.19
2019-03-08T08:44:03.308Z,96145.23
2019-03-08T08:46:50.819Z,96145.87
2019-03-08T08:52:17.443Z,96148.55
2019-03-08T08:57:54.145Z,96147.86
2019-03-08T09:00:41.936Z,96166.72
2019-03-08T09:03:29.494Z,96158.13
2019-03-08T09:06:12.210Z,96165.72
2019-03-08T09:08:59.769Z,96164.71
2019-03-08T09:14:36.400Z,96173.95
2019-03-08T09:17:23.926Z,96175.42
2019-03-08T09:20:11.480Z,96184.83
2019-03-08T09:22:59.003Z,96174.59
2019-03-08T09:25:46.573Z,96186.49
2019-03-08T09:28:34.074Z,96192.41
2019-03-08T09:39:14.916Z,96192.84
2019-03-08T09:42:02.441Z,96189.87
2019-03-08T09:47:28.999Z,96185.45
2019-03-08T09:53:05.705Z,96215.00
2019-03-08T09:58:42.411Z,96212.09
2019-03-08T10:01:29.953Z,96211.22
2019-03-08T10:04:17.602Z,96215.67
2019-03-08T10:07:05.157Z,96226.80
2019-03-08T10:12:29.340Z,96229.79
2019-03-08T10:15:17.380Z,96233.63
2019-03-08T10:18:04.933Z,96235.08
2019-03-08T10:20:52.468Z,96231.93
2019-03-08T10:23:40.114Z,96243.45
2019-03-08T10:26:27.639Z,96235.67
2019-03-08T10:29:15.291Z,96241.81
2019-03-08T10:32:02.814Z,96250.24
2019-03-08T10:34:50.364Z,96266.78
2019-03-08T10:37:37.962Z,96260.81
2019-03-08T10:40:46.746Z,96256.86
2019-03-08T10:54:35.937Z,96287.48
2019-03-08T10:57:23.518Z,96290.00
2019-03-08T11:00:31.916Z,96292.34
2019-03-08T11:03:19.438Z,96295.36
2019-03-08T11:08:46.022Z,96301.31
2019-03-08T11:11:33.674Z,96298.03
2019-03-08T11:16:56.877Z,96302.59
2019-03-08T11:19:44.465Z,96300.59
2019-03-08T11:25:49.032Z,96299.19
2019-03-08T11:28:36.695Z,96297.19
2019-03-08T11:31:43.573Z,96303.05
2019-03-08T11:39:55.310Z,96312.08
2019-03-08T11:42:42.838Z,96306.95
2019-03-08T11:48:25.180Z,96310.63
2019-03-08T11:51:12.698Z,96309.14
2019-03-08T11:54:00.332Z,96315.41
2019-03-08T11:56:55.855Z,96313.82
2019-03-08T11:59:37.138Z,96298.27
2019-03-08T12:02:45.536Z,96294.98
2019-03-08T12:05:33.153Z,96309.22
2019-03-08T12:11:30.556Z,96315.71
2019-03-08T12:14:18.087Z,96310.75
2019-03-08T12:19:40.869Z,96304.11
2019-03-08T12:22:28.398Z,96309.38
2019-03-08T12:25:16.024Z,96305.09
2019-03-08T12:28:24.340Z,96323.56
2019-03-08T12:33:47.306Z,96302.92
2019-03-08T12:36:35.004Z,96308.23
2019-03-08T12:42:17.209Z,96310.22
2019-03-08T12:45:04.769Z,96312.87
2019-03-08T12:47:52.384Z,96303.72
2019-03-08T12:50:39.906Z,96294.40
2019-03-08T12:53:27.462Z,96307.33
2019-03-08T12:56:14.984Z,96281.35
2019-03-08T12:59:02.546Z,96306.17
2019-03-08T13:01:50.072Z,96311.84
2019-03-08T13:04:37.637Z,96335.17
2019-03-08T13:07:25.166Z,96321.13
2019-03-08T13:09:53.617Z,96324.45
2019-03-08T13:12:22.020Z,96317.52
2019-03-08T13:14:50.405Z,96334.73
2019-03-08T13:17:20.546Z,96331.41
2019-03-08T13:19:48.974Z,96334.03
2019-03-08T13:22:17.454Z,96344.61
2019-03-08T13:24:45.885Z,96344.61
2019-03-08T13:27:33.492Z,96364.83
2019-03-08T13:32:35.484Z,96375.69
2019-03-08T13:40:33.026Z,96375.63
2019-03-08T13:45:54.715Z,96364.87
2019-03-08T13:48:42.458Z,96378.56
2019-03-08T13:51:30.262Z,96365.70
2019-03-08T13:53:58.677Z,96368.98
2019-03-08T13:56:27.065Z,96383.02
2019-03-08T13:58:55.458Z,96387.48
2019-03-08T14:03:57.855Z,96394.25
2019-03-08T14:06:28.009Z,96388.46
2019-03-08T14:08:56.400Z,96388.81
2019-03-08T14:11:24.787Z,96402.98
2019-03-08T14:13:53.220Z,96389.06
2019-03-08T14:16:21.640Z,96406.57
2019-03-08T14:18:50.007Z,96407.67
2019-03-08T14:21:20.159Z,96407.13
2019-03-08T14:23:48.552Z,96413.03
2019-03-08T14:26:24.003Z,96415.83
2019-03-08T14:28:52.419Z,96406.38
2019-03-08T14:36:44.582Z,96393.23
2019-03-08T14:39:14.455Z,96405.36
2019-03-08T14:42:03.874Z,96411.63
2019-03-08T14:44:51.585Z,96418.39
2019-03-08T14:47:39.370Z,96419.22
2019-03-08T14:50:47.836Z,96430.79
2019-03-08T14:53:17.960Z,96447.29
2019-03-08T14:55:46.352Z,96447.36
2019-03-08T14:58:14.816Z,96468.58
2019-03-08T15:00:43.208Z,96469.66
2019-03-08T15:03:11.608Z,96463.76
2019-03-08T15:05:40.105Z,96462.29
2019-03-08T15:08:08.495Z,96462.59
2019-03-08T15:10:39.718Z,96471.28
2019-03-08T15:13:07.028Z,96479.31
2019-03-08T15:15:35.491Z,96486.86
2019-03-08T15:18:03.913Z,96488.63
2019-03-08T15:20:34.051Z,96501.11
2019-03-08T15:23:02.482Z,96485.67
2019-03-08T15:25:31.485Z,96480.86
2019-03-08T15:28:01.131Z,96462.67
2019-03-08T15:30:29.519Z,96465.30
2019-03-08T15:32:59.635Z,96465.48
2019-03-08T15:36:07.993Z,96454.61
2019-03-08T15:38:36.389Z,96433.30
2019-03-08T15:41:25.004Z,96433.95
2019-03-08T15:44:13.441Z,96413.84
2019-03-08T15:47:01.055Z,96427.20
2019-03-08T15:49:30.616Z,96426.27
2019-03-08T15:51:59.906Z,96427.41
2019-03-08T15:54:29.779Z,96440.22
2019-03-08T15:56:58.172Z,96436.89
2019-03-08T15:59:26.565Z,96438.81
2019-03-08T16:04:29.320Z,96448.25
2019-03-08T16:07:19.063Z,96449.45
2019-03-08T16:09:47.098Z,96444.70
2019-03-08T16:12:34.826Z,96437.75
2019-03-08T16:23:43.636Z,96448.36
2019-03-08T16:28:46.232Z,96455.30
2019-03-08T16:31:33.544Z,96458.59
2019-03-08T16:37:09.778Z,96456.92
2019-03-08T16:39:57.125Z,96454.13
2019-03-08T16:45:19.586Z,96447.04
2019-03-08T16:48:06.875Z,96451.84
2019-03-08T16:51:15.644Z,96447.06
2019-03-08T16:54:02.916Z,96445.09
2019-03-08T16:59:25.716Z,96447.39
2019-03-08T17:07:37.935Z,96461.64
2019-03-08T17:10:46.285Z,96464.10
2019-03-08T17:16:28.653Z,96481.54
2019-03-08T17:19:16.178Z,96487.45
2019-03-08T17:22:03.907Z,96480.19
2019-03-08T17:24:51.570Z,96484.47
2019-03-08T17:27:39.975Z,96486.90
2019-03-08T17:30:49.155Z,96491.84
2019-03-08T17:33:36.942Z,96497.73
2019-03-08T17:36:24.466Z,96503.80
2019-03-08T17:42:10.394Z,96504.72
2019-03-08T17:44:57.911Z,96504.87
2019-03-08T17:50:45.223Z,96511.09
2019-03-08T17:59:00.545Z,96510.70
2019-03-08T18:04:56.291Z,96524.70
2019-03-08T18:07:43.817Z,96530.80
2019-03-08T18:10:31.451Z,96525.13
2019-03-08T18:18:46.722Z,96533.14
2019-03-08T18:21:34.243Z,96526.83
2019-03-08T18:24:23.904Z,96531.42
2019-03-08T18:27:11.309Z,96537.69
2019-03-08T18:29:58.866Z,96538.47
2019-03-08T18:32:46.388Z,96543.88
2019-03-08T18:35:33.947Z,96545.83
2019-03-08T18:38:21.468Z,96551.28
2019-03-08T18:43:48.202Z,96556.05
2019-03-08T18:46:35.726Z,96559.59
2019-03-08T18:49:23.342Z,96562.46
2019-03-08T18:54:59.970Z,96559.38
2019-03-08T19:00:57.486Z,96561.09
2019-03-08T19:03:45.003Z,96572.75
2019-03-08T19:06:32.880Z,96578.30
2019-03-08T19:09:20.410Z,96578.30
2019-03-08T19:14:43.219Z,96590.55
2019-03-08T19:17:30.752Z,96589.42
2019-03-08T19:20:37.728Z,96583.34
2019-03-08T19:26:14.412Z,96597.46
2019-03-08T19:29:01.933Z,96596.83
2019-03-08T19:31:49.727Z,96594.69
2019-03-08T19:37:26.421Z,96610.25
2019-03-08T19:40:13.943Z,96608.52
2019-03-08T19:43:01.563Z,96607.28
2019-03-08T19:48:39.978Z,96610.63
2019-03-08T19:59:31.293Z,96608.47
2019-03-08T20:02:18.818Z,96610.55
2019-03-08T20:07:42.249Z,96628.91
2019-03-08T20:10:50.566Z,96631.47
2019-03-08T20:16:13.674Z,96625.79
2019-03-08T20:21:50.368Z,96630.16
2019-03-08T20:24:37.892Z,96638.94
2019-03-08T20:27:44.683Z,96641.84
2019-03-08T20:30:51.538Z,96638.88
2019-03-08T20:33:39.113Z,96641.14
2019-03-08T20:36:45.959Z,96637.95
2019-03-08T20:39:33.540Z,96635.33
2019-03-08T20:45:10.330Z,96633.13
2019-03-08T20:47:38.724Z,96634.50
2019-03-08T20:50:47.157Z,96633.32
2019-03-08T20:53:15.557Z,96628.98
2019-03-08T20:55:45.674Z,96637.27
2019-03-08T21:01:07.772Z,96638.80
2019-03-08T21:06:29.393Z,96637.81
2019-03-08T21:08:57.813Z,96635.80
2019-03-08T21:11:26.215Z,96644.44
2019-03-08T21:13:56.329Z,96653.15
2019-03-08T21:16:24.750Z,96654.63
2019-03-08T21:18:53.148Z,96649.83
2019-03-08T21:21:21.549Z,96652.61
2019-03-08T21:23:49.956Z,96649.75
2019-03-08T21:26:18.366Z,96654.55
2019-03-08T21:28:46.763Z,96652.61
2019-03-08T21:31:15.211Z,96652.45
2019-03-08T21:33:43.607Z,96659.03
2019-03-08T21:36:12.003Z,96653.44
2019-03-08T21:38:40.434Z,96642.72
2019-03-08T21:41:10.559Z,96639.37
2019-03-08T21:43:38.956Z,96631.16
2019-03-08T21:48:40.925Z,96642.98
2019-03-08T21:51:09.323Z,96642.28
2019-03-08T21:56:13.730Z,96635.28
2019-03-08T22:01:15.631Z,96638.77
2019-03-08T22:06:19.741Z,96641.85
2019-03-08T22:16:46.568Z,96628.64
2019-03-08T22:21:49.422Z,96619.00
2019-03-08T22:24:31.391Z,96620.94
2019-03-08T22:26:59.800Z,96628.62
2019-03-08T22:29:28.191Z,96621.48
2019-03-08T22:31:56.620Z,96623.41
2019-03-08T22:34:25.021Z,96620.09
2019-03-08T22:36:53.402Z,96612.70
2019-03-08T22:41:56.189Z,96615.82
2019-03-08T22:46:58.992Z,96614.27
2019-03-08T22:49:27.434Z,96618.34
2019-03-08T22:51:55.825Z,96611.94
2019-03-08T22:54:24.221Z,96612.55
2019-03-08T22:59:26.096Z,96609.36
2019-03-08T23:02:34.468Z,96605.67
2019-03-08T23:05:02.862Z,96606.03
2019-03-08T23:07:31.259Z,96606.16
2019-03-08T23:09:59.687Z,96616.87
2019-03-08T23:12:28.078Z,96614.61
2019-03-08T23:14:56.486Z,96615.92
2019-03-08T23:17:25.052Z,96611.16
2019-03-08T23:19:53.445Z,96607.80
2019-03-08T23:22:21.861Z,96613.34
2019-03-08T23:32:57.561Z,96616.11
2019-03-08T23:35:25.956Z,96605.45
2019-03-08T23:37:56.103Z,96607.02
2019-03-08T23:42:59.104Z,96610.63
2019-03-08T23:45:27.535Z,96611.11
2019-03-08T23:47:55.923Z,96605.12
2019-03-08T23:50:24.401Z,96610.38
2019-03-08T23:55:26.535Z,96604.31
2019-03-08T23:57:54.934Z,96606.45
